Aviation Digital Data Service (ADDS)

Output produced by METARs form (2336 UTC 01 September 2014)
found at http://aviationweather.gov/adds/metars/
 
KMSS 012328Z 0200/0224 21003KT P6SM SCT080 BKN200 
     FM020600 21005KT P6SM SCT060 BKN100 
     FM021200 22009KT P6SM SCT035 BKN060 
     FM021600 23011G18KT P6SM VCSH BKN035